createdAt,value
2018-12-07T00:00:36.100Z,1006.90
2018-12-07T00:01:35.990Z,1006.85
2018-12-07T00:02:35.889Z,1006.80
2018-12-07T00:03:35.790Z,1006.79
2018-12-07T00:04:35.680Z,1006.80
2018-12-07T00:05:35.577Z,1006.84
2018-12-07T00:06:35.478Z,1006.82
2018-12-07T00:07:35.378Z,1006.79
2018-12-07T00:08:37.111Z,1006.76
2018-12-07T00:09:35.167Z,1006.75
2018-12-07T00:10:35.069Z,1006.67
2018-12-07T00:11:34.957Z,1006.72
2018-12-07T00:12:34.856Z,1006.72
2018-12-07T00:13:34.757Z,1006.73
2018-12-07T00:14:34.732Z,1006.71
2018-12-07T00:15:34.545Z,1006.73
2018-12-07T00:16:34.447Z,1006.69
2018-12-07T00:17:34.347Z,1006.69
2018-12-07T00:18:34.234Z,1006.66
2018-12-07T00:19:34.136Z,1006.64
2018-12-07T00:20:34.035Z,1006.63
2018-12-07T00:21:33.926Z,1006.63
2018-12-07T00:22:33.825Z,1006.62
2018-12-07T00:23:33.726Z,1006.59
2018-12-07T00:24:33.614Z,1006.68
2018-12-07T00:25:33.516Z,1006.62
2018-12-07T00:26:33.414Z,1006.62
2018-12-07T00:27:33.315Z,1006.57
2018-12-07T00:28:33.209Z,1006.59
2018-12-07T00:29:33.103Z,1006.58
2018-12-07T00:30:33.003Z,1006.59
2018-12-07T00:31:32.906Z,1006.55
2018-12-07T00:32:32.793Z,1006.49
2018-12-07T00:33:32.695Z,1006.50
2018-12-07T00:34:32.593Z,1006.46
2018-12-07T00:35:32.482Z,1006.37
2018-12-07T00:36:32.383Z,1006.34
2018-12-07T00:37:32.283Z,1006.32
2018-12-07T00:38:32.186Z,1006.37
2018-12-07T00:39:32.071Z,1006.39
2018-12-07T00:40:31.972Z,1006.40
2018-12-07T00:41:31.872Z,1006.36
2018-12-07T00:42:31.762Z,1006.34
2018-12-07T00:43:31.662Z,1006.39
2018-12-07T00:44:31.562Z,1006.37
2018-12-07T00:45:31.463Z,1006.40
2018-12-07T00:46:31.350Z,1006.40
2018-12-07T00:47:31.251Z,1006.45
2018-12-07T00:48:31.152Z,1006.41
2018-12-07T00:49:31.051Z,1006.44
2018-12-07T00:50:30.940Z,1006.45
2018-12-07T00:51:30.841Z,1006.44
2018-12-07T00:52:30.732Z,1006.45
2018-12-07T00:53:30.629Z,1006.44
2018-12-07T00:54:30.536Z,1006.40
2018-12-07T00:55:30.430Z,1006.39
2018-12-07T00:56:30.332Z,1006.38
2018-12-07T00:57:30.221Z,1006.37
2018-12-07T00:58:30.120Z,1006.35
2018-12-07T00:59:30.021Z,1006.35
2018-12-07T01:00:29.909Z,1006.29
2018-12-07T01:01:29.812Z,1006.31
2018-12-07T01:02:29.709Z,1006.29
2018-12-07T01:03:29.609Z,1006.25
2018-12-07T01:04:29.498Z,1006.26
2018-12-07T01:05:29.399Z,1006.26
2018-12-07T01:06:29.300Z,1006.23
2018-12-07T01:07:29.200Z,1006.19
2018-12-07T01:08:29.152Z,1006.18
2018-12-07T01:09:28.988Z,1006.20
2018-12-07T01:10:28.889Z,1006.19
2018-12-07T01:11:28.789Z,1006.10
2018-12-07T01:12:28.678Z,1006.15
2018-12-07T01:13:28.579Z,1006.15
2018-12-07T01:14:28.480Z,1006.14
2018-12-07T01:15:28.368Z,1006.20
2018-12-07T01:16:28.267Z,1006.10
2018-12-07T01:17:28.168Z,1006.13
2018-12-07T01:18:28.072Z,1006.08
2018-12-07T01:19:27.958Z,1006.07
2018-12-07T01:20:28.112Z,1006.08
2018-12-07T01:21:27.759Z,1006.08
2018-12-07T01:22:27.659Z,1006.06
2018-12-07T01:23:27.546Z,1006.05
2018-12-07T01:24:27.460Z,1006.01
2018-12-07T01:25:27.360Z,1005.93
2018-12-07T01:26:27.262Z,1005.95
2018-12-07T01:27:27.136Z,1006.00
2018-12-07T01:28:27.037Z,1005.98
2018-12-07T01:29:26.938Z,1006.04
2018-12-07T01:30:26.826Z,1006.03
2018-12-07T01:31:26.724Z,1006.05
2018-12-07T01:32:26.626Z,1005.97
2018-12-07T01:33:26.526Z,1005.99
2018-12-07T01:34:26.416Z,1005.99
2018-12-07T01:35:26.316Z,1005.96
2018-12-07T01:36:26.219Z,1005.95
2018-12-07T01:37:26.117Z,1005.97
2018-12-07T01:38:26.066Z,1005.95
2018-12-07T01:39:25.905Z,1005.95
2018-12-07T01:40:26.105Z,1005.96
2018-12-07T01:41:25.709Z,1005.94
2018-12-07T01:42:25.595Z,1005.95
2018-12-07T01:43:25.496Z,1005.98
2018-12-07T01:44:25.396Z,1005.98
2018-12-07T01:45:25.284Z,1005.97
2018-12-07T01:46:25.186Z,1005.90
2018-12-07T01:47:25.084Z,1005.94
2018-12-07T01:48:24.987Z,1005.88
2018-12-07T01:49:24.874Z,1005.86
2018-12-07T01:50:24.775Z,1005.88
2018-12-07T01:51:24.676Z,1005.87
2018-12-07T01:52:24.575Z,1005.82
2018-12-07T01:53:24.463Z,1005.79
2018-12-07T01:54:24.364Z,1005.80
2018-12-07T01:55:24.263Z,1005.81
2018-12-07T01:56:24.164Z,1005.79
2018-12-07T01:57:24.054Z,1005.80
2018-12-07T01:58:23.954Z,1005.84
2018-12-07T01:59:23.854Z,1005.84
2018-12-07T02:00:23.755Z,1005.84
2018-12-07T02:01:23.642Z,1005.87
2018-12-07T02:02:23.542Z,1005.79
2018-12-07T02:03:23.442Z,1005.79
2018-12-07T02:04:23.335Z,1005.77
2018-12-07T02:05:23.233Z,1005.71
2018-12-07T02:06:23.134Z,1005.67
2018-12-07T02:07:23.037Z,1005.65
2018-12-07T02:08:22.921Z,1005.67
2018-12-07T02:09:22.821Z,1005.59
2018-12-07T02:10:22.723Z,1005.58
2018-12-07T02:11:22.635Z,1005.59
2018-12-07T02:12:22.511Z,1005.51
2018-12-07T02:13:22.412Z,1005.50
2018-12-07T02:14:22.312Z,1005.53
2018-12-07T02:15:22.201Z,1005.48
2018-12-07T02:16:22.101Z,1005.49
2018-12-07T02:17:22.010Z,1005.48
2018-12-07T02:18:21.902Z,1005.45
2018-12-07T02:19:21.790Z,1005.45
2018-12-07T02:20:21.691Z,1005.40
2018-12-07T02:21:21.591Z,1005.41
2018-12-07T02:22:21.491Z,1005.33
2018-12-07T02:23:21.380Z,1005.34
2018-12-07T02:24:21.293Z,1005.28
2018-12-07T02:25:21.193Z,1005.29
2018-12-07T02:26:21.069Z,1005.34
2018-12-07T02:27:20.970Z,1005.29
2018-12-07T02:28:20.874Z,1005.30
2018-12-07T02:29:20.771Z,1005.30
2018-12-07T02:30:20.659Z,1005.30
2018-12-07T02:31:20.558Z,1005.27
2018-12-07T02:32:20.460Z,1005.24
2018-12-07T02:33:20.360Z,1005.23
2018-12-07T02:34:20.249Z,1005.31
2018-12-07T02:35:20.150Z,1005.33
2018-12-07T02:36:20.050Z,1005.28
2018-12-07T02:37:19.938Z,1005.20
2018-12-07T02:38:19.838Z,1005.22
2018-12-07T02:39:19.740Z,1005.19
2018-12-07T02:40:19.989Z,1005.21
2018-12-07T02:41:19.528Z,1005.20
2018-12-07T02:42:19.429Z,1005.17
2018-12-07T02:43:19.330Z,1005.18
2018-12-07T02:44:19.217Z,1005.16
2018-12-07T02:45:19.116Z,1005.14
2018-12-07T02:46:19.017Z,1005.14
2018-12-07T02:47:18.918Z,1005.08
2018-12-07T02:48:18.810Z,1005.10
2018-12-07T02:49:18.711Z,1005.06
2018-12-07T02:50:18.610Z,1005.08
2018-12-07T02:51:18.516Z,1005.05
2018-12-07T02:52:18.396Z,1005.02
2018-12-07T02:53:18.296Z,1004.98
2018-12-07T02:54:18.198Z,1005.00
2018-12-07T02:55:18.085Z,1004.95
2018-12-07T02:56:17.987Z,1004.92
2018-12-07T02:57:17.886Z,1004.92
2018-12-07T02:58:17.776Z,1004.92
2018-12-07T02:59:17.676Z,1004.85
2018-12-07T03:00:17.575Z,1004.85
2018-12-07T03:01:17.475Z,1004.87
2018-12-07T03:02:17.364Z,1004.83
2018-12-07T03:03:17.265Z,1004.86
2018-12-07T03:04:17.167Z,1004.81
2018-12-07T03:05:17.052Z,1004.79
2018-12-07T03:06:16.955Z,1004.78
2018-12-07T03:07:16.853Z,1004.76
2018-12-07T03:08:16.744Z,1004.75
2018-12-07T03:09:16.644Z,1004.72
2018-12-07T03:10:16.545Z,1004.74
2018-12-07T03:11:16.432Z,1004.67
2018-12-07T03:12:16.331Z,1004.69
2018-12-07T03:13:16.231Z,1004.67
2018-12-07T03:14:16.135Z,1004.66
2018-12-07T03:15:16.021Z,1004.62
2018-12-07T03:16:15.925Z,1004.67
2018-12-07T03:17:15.823Z,1004.65
2018-12-07T03:18:15.710Z,1004.68
2018-12-07T03:19:15.610Z,1004.61
2018-12-07T03:20:15.811Z,1004.65
2018-12-07T03:21:15.400Z,1004.63
2018-12-07T03:22:15.301Z,1004.61
2018-12-07T03:23:15.202Z,1004.62
2018-12-07T03:24:15.089Z,1004.60
2018-12-07T03:25:14.994Z,1004.64
2018-12-07T03:26:14.890Z,1004.58
2018-12-07T03:27:14.792Z,1004.59
2018-12-07T03:28:14.680Z,1004.54
2018-12-07T03:29:14.581Z,1004.52
2018-12-07T03:30:14.480Z,1004.55
2018-12-07T03:31:14.390Z,1004.53
2018-12-07T03:32:14.274Z,1004.51
2018-12-07T03:33:14.169Z,1004.43
2018-12-07T03:34:14.065Z,1004.49
2018-12-07T03:35:13.959Z,1004.45
2018-12-07T03:36:13.858Z,1004.47
2018-12-07T03:37:13.747Z,1004.46
2018-12-07T03:38:13.646Z,1004.40
2018-12-07T03:39:13.547Z,1004.38
2018-12-07T03:40:13.448Z,1004.41
2018-12-07T03:41:13.335Z,1004.46
2018-12-07T03:42:13.236Z,1004.38
2018-12-07T03:43:13.138Z,1004.34
2018-12-07T03:44:13.025Z,1004.37
2018-12-07T03:45:12.924Z,1004.34
2018-12-07T03:46:12.825Z,1004.39
2018-12-07T03:47:12.726Z,1004.41
2018-12-07T03:48:12.615Z,1004.40
2018-12-07T03:49:12.515Z,1004.33
2018-12-07T03:50:12.416Z,1004.32
2018-12-07T03:51:12.303Z,1004.31
2018-12-07T03:52:12.203Z,1004.31
2018-12-07T03:53:12.104Z,1004.30
2018-12-07T03:54:11.993Z,1004.33
2018-12-07T03:55:11.901Z,1004.32
2018-12-07T03:56:11.794Z,1004.32
2018-12-07T03:57:11.684Z,1004.30
2018-12-07T03:58:11.582Z,1004.28
2018-12-07T03:59:11.487Z,1004.34
2018-12-07T04:00:11.384Z,1004.31
2018-12-07T04:01:11.272Z,1004.25
2018-12-07T04:02:11.172Z,1004.24
2018-12-07T04:03:11.073Z,1004.30
2018-12-07T04:04:10.962Z,1004.27
2018-12-07T04:05:10.863Z,1004.27
2018-12-07T04:06:10.761Z,1004.28
2018-12-07T04:07:10.663Z,1004.26
2018-12-07T04:08:10.561Z,1004.24
2018-12-07T04:09:10.451Z,1004.18
2018-12-07T04:10:10.352Z,1004.23
2018-12-07T04:11:10.240Z,1004.20
2018-12-07T04:12:10.140Z,1004.19
2018-12-07T04:13:10.044Z,1004.20
2018-12-07T04:14:09.942Z,1004.18
2018-12-07T04:15:09.830Z,1004.18
2018-12-07T04:16:09.730Z,1004.14
2018-12-07T04:17:09.634Z,1004.16
2018-12-07T04:18:09.529Z,1004.15
2018-12-07T04:19:09.420Z,1004.13
2018-12-07T04:20:09.321Z,1004.08
2018-12-07T04:21:09.221Z,1004.09
2018-12-07T04:22:09.111Z,1004.06
2018-12-07T04:23:09.010Z,1004.09
2018-12-07T04:24:08.910Z,1004.07
2018-12-07T04:25:08.798Z,1004.05
2018-12-07T04:26:08.695Z,1004.10
2018-12-07T04:27:08.599Z,1004.12
2018-12-07T04:28:08.510Z,1004.10
2018-12-07T04:29:08.388Z,1004.13
2018-12-07T04:30:08.289Z,1004.09
2018-12-07T04:31:08.190Z,1004.09
2018-12-07T04:32:08.077Z,1004.12
2018-12-07T04:33:07.977Z,1004.11
2018-12-07T04:34:07.955Z,1004.07
2018-12-07T04:35:08.085Z,1004.11
2018-12-07T04:36:07.869Z,1004.08
2018-12-07T04:37:07.572Z,1004.08
2018-12-07T04:38:07.469Z,1004.09
2018-12-07T04:39:07.358Z,1004.10
2018-12-07T04:40:07.259Z,1004.10
2018-12-07T04:41:07.157Z,1004.10
2018-12-07T04:42:07.058Z,1004.12
2018-12-07T04:43:06.947Z,1004.10
2018-12-07T04:44:06.848Z,1004.12
2018-12-07T04:45:06.749Z,1004.11
2018-12-07T04:46:06.636Z,1004.08
2018-12-07T04:47:06.536Z,1004.10
2018-12-07T04:48:06.437Z,1004.07
2018-12-07T04:49:06.336Z,1004.06
2018-12-07T04:50:06.229Z,1004.10
2018-12-07T04:51:06.126Z,1004.02
2018-12-07T04:52:06.027Z,1004.08
2018-12-07T04:53:05.921Z,1004.05
2018-12-07T04:54:05.821Z,1004.02
2018-12-07T04:55:05.715Z,1004.00
2018-12-07T04:56:05.629Z,1003.98
2018-12-07T04:57:05.505Z,1003.96
2018-12-07T04:58:05.405Z,1003.95
2018-12-07T04:59:05.306Z,1003.97
2018-12-07T05:00:05.195Z,1003.92
2018-12-07T05:01:05.103Z,1003.89
2018-12-07T05:02:04.995Z,1003.90
2018-12-07T05:03:04.900Z,1003.90
2018-12-07T05:04:04.785Z,1003.90
2018-12-07T05:05:04.686Z,1003.92
2018-12-07T05:06:04.591Z,1003.90
2018-12-07T05:07:04.486Z,1003.90
2018-12-07T05:08:04.373Z,1003.85
2018-12-07T05:09:04.274Z,1003.82
2018-12-07T05:10:04.174Z,1003.83
2018-12-07T05:11:04.063Z,1003.82
2018-12-07T05:12:03.963Z,1003.77
2018-12-07T05:13:03.863Z,1003.78
2018-12-07T05:14:03.764Z,1003.77
2018-12-07T05:15:03.652Z,1003.79
2018-12-07T05:16:03.553Z,1003.82
2018-12-07T05:17:03.455Z,1003.87
2018-12-07T05:18:03.343Z,1003.82
2018-12-07T05:19:03.243Z,1003.89
2018-12-07T05:20:03.155Z,1003.83
2018-12-07T05:21:03.047Z,1003.81
2018-12-07T05:22:02.934Z,1003.81
2018-12-07T05:23:02.831Z,1003.77
2018-12-07T05:24:02.731Z,1003.85
2018-12-07T05:25:02.624Z,1003.83
2018-12-07T05:26:02.522Z,1003.86
2018-12-07T05:27:02.422Z,1003.82
2018-12-07T05:28:02.322Z,1003.90
2018-12-07T05:29:02.209Z,1003.83
2018-12-07T05:30:02.110Z,1003.87
2018-12-07T05:31:02.011Z,1003.87
2018-12-07T05:32:01.912Z,1003.82
2018-12-07T05:33:01.800Z,1003.87
2018-12-07T05:34:01.700Z,1003.87
2018-12-07T05:35:01.602Z,1003.81
2018-12-07T05:36:01.489Z,1003.83
2018-12-07T05:37:01.389Z,1003.77
2018-12-07T05:38:01.299Z,1003.75
2018-12-07T05:39:01.192Z,1003.81
2018-12-07T05:40:01.083Z,1003.81
2018-12-07T05:41:00.987Z,1003.81
2018-12-07T05:42:00.880Z,1003.81
2018-12-07T05:43:00.768Z,1003.81
2018-12-07T05:44:00.672Z,1003.81
2018-12-07T05:45:00.571Z,1003.82
2018-12-07T05:46:00.472Z,1003.77
2018-12-07T05:47:00.358Z,1003.78
2018-12-07T05:48:00.258Z,1003.82
2018-12-07T05:49:00.159Z,1003.84
2018-12-07T05:50:00.053Z,1003.85
2018-12-07T05:50:59.947Z,1003.79
2018-12-07T05:51:59.847Z,1003.82
2018-12-07T05:52:59.748Z,1003.77
2018-12-07T05:53:59.636Z,1003.80
2018-12-07T05:54:59.537Z,1003.82
2018-12-07T05:55:59.438Z,1003.84
2018-12-07T05:56:59.341Z,1003.78
2018-12-07T05:57:59.239Z,1003.76
2018-12-07T05:58:59.139Z,1003.75
2018-12-07T05:59:59.029Z,1003.78
2018-12-07T06:00:58.917Z,1003.74
2018-12-07T06:01:58.817Z,1003.80
2018-12-07T06:02:58.720Z,1003.74
2018-12-07T06:03:58.619Z,1003.70
2018-12-07T06:04:58.505Z,1003.70
2018-12-07T06:05:58.408Z,1003.74
2018-12-07T06:06:58.306Z,1003.72
2018-12-07T06:07:58.206Z,1003.76
2018-12-07T06:08:58.094Z,1003.72
2018-12-07T06:09:58.041Z,1003.69
2018-12-07T06:10:57.895Z,1003.68
2018-12-07T06:11:57.784Z,1003.68
2018-12-07T06:12:57.686Z,1003.66
2018-12-07T06:13:57.585Z,1003.67
2018-12-07T06:14:57.485Z,1003.70
2018-12-07T06:15:57.374Z,1003.70
2018-12-07T06:16:57.273Z,1003.73
2018-12-07T06:17:57.175Z,1003.72
2018-12-07T06:18:57.077Z,1003.71
2018-12-07T06:19:56.962Z,1003.69
2018-12-07T06:20:56.863Z,1003.69
2018-12-07T06:21:56.763Z,1003.72
2018-12-07T06:22:56.664Z,1003.71
2018-12-07T06:23:56.553Z,1003.70
2018-12-07T06:24:56.453Z,1003.73
2018-12-07T06:25:56.354Z,1003.68
2018-12-07T06:26:56.254Z,1003.67
2018-12-07T06:27:56.142Z,1003.69
2018-12-07T06:28:56.043Z,1003.62
2018-12-07T06:29:55.948Z,1003.61
2018-12-07T06:30:55.847Z,1003.58
2018-12-07T06:31:55.732Z,1003.57
2018-12-07T06:32:56.505Z,1003.51
2018-12-07T06:33:55.533Z,1003.54
2018-12-07T06:34:55.421Z,1003.53
2018-12-07T06:35:55.321Z,1003.55
2018-12-07T06:36:55.222Z,1003.56
2018-12-07T06:37:55.121Z,1003.57
2018-12-07T06:38:55.012Z,1003.52
2018-12-07T06:39:54.913Z,1003.54
2018-12-07T06:40:54.812Z,1003.54
2018-12-07T06:41:54.713Z,1003.58
2018-12-07T06:42:54.600Z,1003.56
2018-12-07T06:43:54.500Z,1003.51
2018-12-07T06:44:54.407Z,1003.51
2018-12-07T06:45:54.316Z,1003.48
2018-12-07T06:46:54.190Z,1003.48
2018-12-07T06:47:54.091Z,1003.48
2018-12-07T06:48:53.992Z,1003.49
2018-12-07T06:49:53.880Z,1003.47
2018-12-07T06:50:53.785Z,1003.46
2018-12-07T06:51:53.679Z,1003.44
2018-12-07T06:52:53.583Z,1003.44
2018-12-07T06:53:53.469Z,1003.44
2018-12-07T06:54:53.379Z,1003.41
2018-12-07T06:55:53.270Z,1003.39
2018-12-07T06:56:53.170Z,1003.34
2018-12-07T06:57:53.059Z,1003.41
2018-12-07T06:58:52.972Z,1003.42
2018-12-07T06:59:53.122Z,1003.43
2018-12-07T07:00:52.761Z,1003.41
2018-12-07T07:01:52.648Z,1003.37
2018-12-07T07:02:52.549Z,1003.37
2018-12-07T07:03:52.452Z,1003.39
2018-12-07T07:04:52.350Z,1003.38
2018-12-07T07:05:52.240Z,1003.40
2018-12-07T07:06:52.138Z,1003.44
2018-12-07T07:07:52.040Z,1003.41
2018-12-07T07:08:51.939Z,1003.37
2018-12-07T07:09:51.829Z,1003.43
2018-12-07T07:10:51.728Z,1003.37
2018-12-07T07:11:51.630Z,1003.35
2018-12-07T07:12:51.530Z,1003.40
2018-12-07T07:13:51.418Z,1003.42
2018-12-07T07:14:51.317Z,1003.43
2018-12-07T07:15:51.218Z,1003.37
2018-12-07T07:16:51.118Z,1003.38
2018-12-07T07:17:51.008Z,1003.42
2018-12-07T07:18:50.907Z,1003.39
2018-12-07T07:19:50.809Z,1003.36
2018-12-07T07:20:50.709Z,1003.40
2018-12-07T07:21:50.598Z,1003.38
2018-12-07T07:22:50.506Z,1003.46
2018-12-07T07:23:50.399Z,1003.41
2018-12-07T07:24:50.298Z,1003.43
2018-12-07T07:25:50.189Z,1003.42
2018-12-07T07:26:50.090Z,1003.39
2018-12-07T07:27:49.989Z,1003.40
2018-12-07T07:28:49.889Z,1003.38
2018-12-07T07:29:49.778Z,1003.41
2018-12-07T07:30:49.678Z,1003.48
2018-12-07T07:31:49.577Z,1003.47
2018-12-07T07:32:49.477Z,1003.42
2018-12-07T07:33:49.377Z,1003.42
2018-12-07T07:34:49.266Z,1003.38
2018-12-07T07:35:49.166Z,1003.38
2018-12-07T07:36:49.067Z,1003.39
2018-12-07T07:37:48.968Z,1003.38
2018-12-07T07:38:48.856Z,1003.35
2018-12-07T07:39:48.756Z,1003.36
2018-12-07T07:40:48.658Z,1003.35
2018-12-07T07:41:48.558Z,1003.36
2018-12-07T07:42:48.457Z,1003.31
2018-12-07T07:43:48.348Z,1003.32
2018-12-07T07:44:48.247Z,1003.33
2018-12-07T07:45:48.148Z,1003.31
2018-12-07T07:46:48.060Z,1003.27
2018-12-07T07:47:47.949Z,1003.25
2018-12-07T07:48:47.851Z,1003.26
2018-12-07T07:49:47.821Z,1003.24
2018-12-07T07:50:47.638Z,1003.24
2018-12-07T07:51:47.527Z,1003.23
2018-12-07T07:52:47.428Z,1003.21
2018-12-07T07:53:47.330Z,1003.18
2018-12-07T07:54:47.228Z,1003.16
2018-12-07T07:55:47.117Z,1003.19
2018-12-07T07:56:47.016Z,1003.16
2018-12-07T07:57:46.916Z,1003.15
2018-12-07T07:58:46.818Z,1003.17
2018-12-07T07:59:46.717Z,1003.13
2018-12-07T08:00:46.614Z,1003.13
2018-12-07T08:01:46.531Z,1003.15
2018-12-07T08:02:46.408Z,1003.10
2018-12-07T08:03:46.308Z,1003.09
2018-12-07T08:04:46.290Z,1003.07
2018-12-07T08:05:46.096Z,1003.04
2018-12-07T08:06:45.996Z,1003.00
2018-12-07T08:07:45.897Z,1003.05
2018-12-07T08:08:45.798Z,1003.01
2018-12-07T08:09:45.698Z,1002.97
2018-12-07T08:10:45.587Z,1003.00
2018-12-07T08:11:45.487Z,1002.94
2018-12-07T08:12:45.387Z,1002.94
2018-12-07T08:13:45.292Z,1002.92
2018-12-07T08:14:45.193Z,1002.91
2018-12-07T08:15:45.076Z,1002.84
2018-12-07T08:16:44.977Z,1002.87
2018-12-07T08:17:44.880Z,1002.79
2018-12-07T08:18:44.778Z,1002.76
2018-12-07T08:19:44.668Z,1002.83
2018-12-07T08:20:44.570Z,1002.82
2018-12-07T08:21:44.468Z,1002.78
2018-12-07T08:22:44.369Z,1002.81
2018-12-07T08:23:44.269Z,1002.78
2018-12-07T08:24:44.158Z,1002.77
2018-12-07T08:25:44.056Z,1002.77
2018-12-07T08:26:43.960Z,1002.79
2018-12-07T08:27:43.858Z,1002.75
2018-12-07T08:28:43.758Z,1002.80
2018-12-07T08:29:43.659Z,1002.82
2018-12-07T08:30:43.548Z,1002.82
2018-12-07T08:31:43.449Z,1002.80
2018-12-07T08:32:43.350Z,1002.78
2018-12-07T08:33:43.250Z,1002.79
2018-12-07T08:34:43.150Z,1002.81
2018-12-07T08:35:43.041Z,1002.80
2018-12-07T08:36:42.938Z,1002.77
2018-12-07T08:37:42.839Z,1002.79
2018-12-07T08:38:42.739Z,1002.80
2018-12-07T08:39:42.890Z,1002.77
2018-12-07T08:40:42.531Z,1002.80
2018-12-07T08:41:42.430Z,1002.77
2018-12-07T08:42:42.329Z,1002.77
2018-12-07T08:43:42.230Z,1002.76
2018-12-07T08:44:42.130Z,1002.74
2018-12-07T08:45:42.034Z,1002.76
2018-12-07T08:46:41.919Z,1002.73
2018-12-07T08:47:41.819Z,1002.73
2018-12-07T08:48:41.776Z,1002.69
2018-12-07T08:49:41.620Z,1002.73
2018-12-07T08:50:41.524Z,1002.72
2018-12-07T08:51:41.422Z,1002.71
2018-12-07T08:52:41.313Z,1002.68
2018-12-07T08:53:41.209Z,1002.66
2018-12-07T08:54:41.111Z,1002.72
2018-12-07T08:55:41.011Z,1002.69
2018-12-07T08:56:40.913Z,1002.69
2018-12-07T08:57:40.811Z,1002.70
2018-12-07T08:58:40.700Z,1002.67
2018-12-07T08:59:40.601Z,1002.69
2018-12-07T09:00:40.501Z,1002.69
2018-12-07T09:01:40.402Z,1002.65
2018-12-07T09:02:40.302Z,1002.64
2018-12-07T09:03:40.202Z,1002.61
2018-12-07T09:04:40.092Z,1002.61
2018-12-07T09:05:39.991Z,1002.61
2018-12-07T09:06:39.892Z,1002.66
2018-12-07T09:07:39.794Z,1002.61
2018-12-07T09:08:39.695Z,1002.59
2018-12-07T09:09:39.595Z,1002.57
2018-12-07T09:10:39.482Z,1002.58
2018-12-07T09:11:39.382Z,1002.57
2018-12-07T09:12:39.284Z,1002.56
2018-12-07T09:13:39.183Z,1002.58
2018-12-07T09:14:39.084Z,1002.54
2018-12-07T09:15:38.984Z,1002.54
2018-12-07T09:16:38.885Z,1002.51
2018-12-07T09:17:38.774Z,1002.54
2018-12-07T09:18:38.677Z,1002.49
2018-12-07T09:19:38.575Z,1002.49
2018-12-07T09:20:38.475Z,1002.46
2018-12-07T09:21:38.376Z,1002.41
2018-12-07T09:22:38.280Z,1002.42
2018-12-07T09:23:38.166Z,1002.40
2018-12-07T09:24:38.065Z,1002.39
2018-12-07T09:25:37.969Z,1002.39
2018-12-07T09:26:37.866Z,1002.39
2018-12-07T09:27:37.766Z,1002.31
2018-12-07T09:28:37.668Z,1002.34
2018-12-07T09:29:37.567Z,1002.37
2018-12-07T09:30:37.458Z,1002.34
2018-12-07T09:31:37.357Z,1002.35
2018-12-07T09:32:37.258Z,1002.29
2018-12-07T09:33:37.162Z,1002.32
2018-12-07T09:34:37.059Z,1002.30
2018-12-07T09:35:36.962Z,1002.28
2018-12-07T09:36:36.859Z,1002.24
2018-12-07T09:37:36.750Z,1002.26
2018-12-07T09:38:36.647Z,1002.24
2018-12-07T09:39:36.551Z,1002.24
2018-12-07T09:40:36.448Z,1002.25
2018-12-07T09:41:36.349Z,1002.19
2018-12-07T09:42:36.251Z,1002.23
2018-12-07T09:43:36.150Z,1002.16
2018-12-07T09:44:36.056Z,1002.19
2018-12-07T09:45:35.940Z,1002.18
2018-12-07T09:46:35.840Z,1002.14
2018-12-07T09:47:35.740Z,1002.13
2018-12-07T09:48:35.646Z,1002.05
2018-12-07T09:49:35.542Z,1002.09
2018-12-07T09:50:35.444Z,1002.06
2018-12-07T09:51:35.343Z,1002.09
2018-12-07T09:52:35.231Z,1002.06
2018-12-07T09:53:35.131Z,1002.00
2018-12-07T09:54:35.112Z,1002.03
2018-12-07T09:55:34.932Z,1002.01
2018-12-07T09:56:34.832Z,1002.03
2018-12-07T09:57:34.733Z,1002.01
2018-12-07T09:58:34.634Z,1002.03
2018-12-07T09:59:34.526Z,1001.99
2018-12-07T10:00:34.430Z,1002.00
2018-12-07T10:01:34.328Z,1002.00
2018-12-07T10:02:34.226Z,1001.95
2018-12-07T10:03:34.126Z,1001.94
2018-12-07T10:04:34.027Z,1001.89
2018-12-07T10:05:33.927Z,1001.83
2018-12-07T10:06:33.827Z,1001.88
2018-12-07T10:07:33.714Z,1001.78
2018-12-07T10:08:33.614Z,1001.77
2018-12-07T10:09:33.519Z,1001.77
2018-12-07T10:10:33.417Z,1001.73
2018-12-07T10:11:33.316Z,1001.69
2018-12-07T10:12:33.234Z,1001.68
2018-12-07T10:13:33.130Z,1001.67
2018-12-07T10:14:33.019Z,1001.66
2018-12-07T10:15:32.906Z,1001.65
2018-12-07T10:16:32.808Z,1001.62
2018-12-07T10:17:32.709Z,1001.48
2018-12-07T10:18:32.608Z,1001.55
2018-12-07T10:19:32.759Z,1001.53
2018-12-07T10:20:32.409Z,1001.46
2018-12-07T10:21:32.301Z,1001.47
2018-12-07T10:22:32.198Z,1001.40
2018-12-07T10:23:32.099Z,1001.40
2018-12-07T10:24:31.999Z,1001.38
2018-12-07T10:25:31.900Z,1001.39
2018-12-07T10:26:31.800Z,1001.41
2018-12-07T10:27:31.701Z,1001.33
2018-12-07T10:28:31.601Z,1001.31
2018-12-07T10:29:31.502Z,1001.30
2018-12-07T10:30:31.490Z,1001.25
2018-12-07T10:31:31.291Z,1001.21
2018-12-07T10:32:31.191Z,1001.18
2018-12-07T10:33:31.098Z,1001.19
2018-12-07T10:34:30.994Z,1001.19
2018-12-07T10:35:30.893Z,1001.21
2018-12-07T10:36:30.794Z,1001.20
2018-12-07T10:37:30.694Z,1001.15
2018-12-07T10:38:30.596Z,1001.11
2018-12-07T10:39:30.484Z,1001.13
2018-12-07T10:40:30.384Z,1001.06
2018-12-07T10:41:30.284Z,1001.08
2018-12-07T10:42:30.184Z,1001.07
2018-12-07T10:43:30.088Z,1001.06
2018-12-07T10:44:29.985Z,1001.06
2018-12-07T10:45:29.886Z,1000.99
2018-12-07T10:46:29.786Z,1001.00
2018-12-07T10:47:29.687Z,1001.01
2018-12-07T10:48:29.587Z,1000.97
2018-12-07T10:49:30.530Z,1000.96
2018-12-07T10:50:29.391Z,1000.94
2018-12-07T10:51:29.277Z,1000.96
2018-12-07T10:52:29.178Z,1000.90
2018-12-07T10:53:29.079Z,1000.86
2018-12-07T10:54:29.453Z,1000.88
2018-12-07T10:55:28.880Z,1000.80
2018-12-07T10:56:28.780Z,1000.79
2018-12-07T10:57:28.681Z,1000.77
2018-12-07T10:58:28.581Z,1000.78
2018-12-07T10:59:28.483Z,1000.78
2018-12-07T11:00:28.382Z,1000.75
2018-12-07T11:01:28.272Z,1000.77
2018-12-07T11:02:28.171Z,1000.68
2018-12-07T11:03:28.072Z,1000.67
2018-12-07T11:04:27.972Z,1000.67
2018-12-07T11:05:27.872Z,1000.60
2018-12-07T11:06:27.773Z,1000.59
2018-12-07T11:07:27.675Z,1000.53
2018-12-07T11:08:27.573Z,1000.56
2018-12-07T11:09:27.474Z,1000.58
2018-12-07T11:10:27.375Z,1000.56
2018-12-07T11:11:27.275Z,1000.49
2018-12-07T11:12:27.176Z,1000.50
2018-12-07T11:13:27.077Z,1000.47
2018-12-07T11:14:26.977Z,1000.48
2018-12-07T11:15:26.866Z,1000.46
2018-12-07T11:16:26.768Z,1000.45
2018-12-07T11:17:26.668Z,1000.42
2018-12-07T11:18:26.569Z,1000.41
2018-12-07T11:19:26.470Z,1000.38
2018-12-07T11:20:26.370Z,1000.39
2018-12-07T11:21:26.270Z,1000.38
2018-12-07T11:22:26.171Z,1000.38
2018-12-07T11:23:26.072Z,1000.34
2018-12-07T11:24:25.971Z,1000.37
2018-12-07T11:25:25.872Z,1000.26
2018-12-07T11:26:25.776Z,1000.24
2018-12-07T11:27:25.672Z,1000.31
2018-12-07T11:28:25.573Z,1000.26
2018-12-07T11:29:25.462Z,1000.24
2018-12-07T11:30:25.362Z,1000.23
2018-12-07T11:31:25.262Z,1000.21
2018-12-07T11:32:25.162Z,1000.20
2018-12-07T11:33:25.063Z,1000.17
2018-12-07T11:34:24.964Z,1000.18
2018-12-07T11:35:24.864Z,1000.17
2018-12-07T11:36:24.768Z,1000.15
2018-12-07T11:37:24.666Z,1000.16
2018-12-07T11:38:24.565Z,1000.12
2018-12-07T11:39:24.466Z,1000.13
2018-12-07T11:40:24.373Z,1000.10
2018-12-07T11:41:24.271Z,1000.10
2018-12-07T11:42:24.170Z,1000.14
2018-12-07T11:43:24.057Z,1000.02
2018-12-07T11:44:23.957Z,1000.00
2018-12-07T11:45:23.863Z,999.96
2018-12-07T11:46:23.759Z,999.98
2018-12-07T11:47:23.658Z,999.98
2018-12-07T11:48:23.560Z,999.98
2018-12-07T11:49:23.461Z,999.95
2018-12-07T11:50:23.361Z,999.93
2018-12-07T11:51:23.263Z,999.90
2018-12-07T11:52:23.163Z,999.89
2018-12-07T11:53:23.063Z,999.82
2018-12-07T11:54:22.963Z,999.88
2018-12-07T11:55:22.851Z,999.83
2018-12-07T11:56:22.751Z,999.84
2018-12-07T11:57:22.652Z,999.81
2018-12-07T11:58:22.552Z,999.80
2018-12-07T11:59:22.455Z,999.77
2018-12-07T12:00:22.354Z,999.75
2018-12-07T12:01:22.254Z,999.73
2018-12-07T12:02:26.254Z,999.74
2018-12-07T12:03:22.055Z,999.70
2018-12-07T12:04:21.944Z,999.71
2018-12-07T12:05:21.845Z,999.68